Time;durP1;ratioP1;P1;durP2;ratioP2;P2;SDS_P1;SDS_P2;PMS_P1;PMS_P2;Temp;Humidity;BMP_temperature;BMP_pressure;BME280_temperature;BME280_humidity;BME280_pressure;Samples;Min_cycle;Max_cycle;Signal;HPM_P1;HPM_P2
2023/06/20 00:01:29;;;;;;;6.03;5.50;;;;;;;18.11;70.68;101718.09;6149115;23;20037;-74
2023/06/20 00:03:56;;;;;;;6.50;5.90;;;;;;;18.10;70.75;101719.03;6148865;23;20036;-73
2023/06/20 00:06:24;;;;;;;6.25;5.75;;;;;;;18.10;70.66;101724.31;6150240;23;20032;-73
2023/06/20 00:08:51;;;;;;;7.13;5.82;;;;;;;18.08;70.72;101730.56;6149753;23;20021;-73
2023/06/20 00:11:18;;;;;;;7.25;5.75;;;;;;;18.06;70.94;101720.03;6149693;23;20060;-73
2023/06/20 00:13:45;;;;;;;5.57;5.05;;;;;;;18.06;70.70;101721.81;6145336;23;20026;-72
2023/06/20 00:16:12;;;;;;;6.35;5.75;;;;;;;18.05;70.94;101722.75;6150025;23;20028;-73
2023/06/20 00:18:38;;;;;;;5.85;5.28;;;;;;;18.03;70.99;101719.28;6148002;23;20040;-73
2023/06/20 00:21:05;;;;;;;8.07;5.95;;;;;;;18.04;70.91;101726.28;6149815;23;20052;-74
2023/06/20 00:23:34;;;;;;;7.80;5.22;;;;;;;18.02;71.09;101729.00;6148511;23;20029;-72
2023/06/20 00:26:00;;;;;;;5.35;4.85;;;;;;;18.01;70.81;101726.41;6148213;23;20025;-72
2023/06/20 00:28:27;;;;;;;10.35;5.63;;;;;;;18.00;70.92;101732.63;6148040;23;20022;-72
2023/06/20 00:30:54;;;;;;;5.63;5.13;;;;;;;17.97;70.74;101731.78;6149594;23;20029;-73
2023/06/20 00:33:21;;;;;;;5.78;5.18;;;;;;;17.97;70.75;101725.66;6147199;23;20025;-72
2023/06/20 00:35:48;;;;;;;7.82;6.30;;;;;;;17.95;70.96;101738.06;6148028;23;20025;-73
2023/06/20 00:38:14;;;;;;;7.95;5.97;;;;;;;17.93;70.83;101730.19;6148186;23;20048;-73
2023/06/20 00:40:42;;;;;;;5.32;4.30;;;;;;;17.91;70.56;101732.00;6147964;23;20036;-73
2023/06/20 00:43:09;;;;;;;5.13;4.75;;;;;;;17.90;70.52;101739.97;6147402;23;20033;-72
2023/06/20 00:45:36;;;;;;;5.95;5.45;;;;;;;17.88;70.60;101734.75;6148781;23;20037;-73
2023/06/20 00:48:06;;;;;;;5.97;5.10;;;;;;;17.86;70.67;101727.78;6149653;23;20032;-73
2023/06/20 00:50:34;;;;;;;5.20;4.70;;;;;;;17.85;70.72;101736.66;6146819;23;20030;-72
2023/06/20 00:53:04;;;;;;;5.85;5.35;;;;;;;17.83;70.67;101727.91;6149920;23;20032;-73
2023/06/20 00:55:31;;;;;;;5.10;4.65;;;;;;;17.81;70.56;101727.06;6148681;23;20466;-72
2023/06/20 00:58:01;;;;;;;5.68;5.28;;;;;;;17.79;70.74;101737.72;6149195;23;20033;-72
2023/06/20 01:00:30;;;;;;;6.10;5.50;;;;;;;17.76;70.83;101738.66;6148943;23;20354;-73
2023/06/20 01:03:02;;;;;;;6.05;5.43;;;;;;;17.76;70.87;101733.38;6147371;23;20060;-73
2023/06/20 01:05:30;;;;;;;5.45;4.95;;;;;;;17.73;70.53;101730.81;6149149;23;20017;-72
2023/06/20 01:08:04;;;;;;;6.47;5.88;;;;;;;17.75;71.00;101738.69;6146122;23;20022;-72
2023/06/20 01:10:44;;;;;;;6.55;5.95;;;;;;;17.73;70.73;101729.94;6148826;23;20021;-73
2023/06/20 01:13:24;;;;;;;5.18;4.78;;;;;;;17.72;70.87;101737.00;6148620;23;20347;-73
2023/06/20 01:15:59;;;;;;;5.63;5.05;;;;;;;17.69;70.72;101733.59;6148874;23;20025;-73
2023/06/20 01:18:35;;;;;;;5.82;5.10;;;;;;;17.68;70.82;101735.38;6148049;23;20026;-72
2023/06/20 01:21:08;;;;;;;8.88;5.53;;;;;;;17.67;70.95;101728.38;6149650;23;20025;-73
2023/06/20 01:23:42;;;;;;;5.35;4.85;;;;;;;17.65;71.19;101732.84;6147956;23;20427;-72
2023/06/20 01:26:17;;;;;;;7.63;5.10;;;;;;;17.63;70.98;101736.44;6149890;23;20044;-73
2023/06/20 01:28:50;;;;;;;5.57;5.07;;;;;;;17.62;71.08;101725.03;6148278;23;20032;-72
2023/06/20 01:31:19;;;;;;;5.15;4.65;;;;;;;17.60;71.15;101721.56;6149834;23;20029;-72
2023/06/20 01:33:50;;;;;;;5.55;5.15;;;;;;;17.59;70.99;101718.94;6147091;23;20017;-73
2023/06/20 01:36:20;;;;;;;7.05;6.38;;;;;;;17.58;71.18;101733.09;6146329;23;20617;-73
2023/06/20 01:38:53;;;;;;;8.10;6.22;;;;;;;17.57;71.26;101732.22;6145417;23;20033;-73
2023/06/20 01:41:22;;;;;;;6.93;6.43;;;;;;;17.56;71.13;101727.88;6149064;23;20044;-73
2023/06/20 01:43:50;;;;;;;6.70;6.10;;;;;;;17.56;71.35;101730.50;6144209;23;20841;-73
2023/06/20 01:46:19;;;;;;;8.63;6.38;;;;;;;17.54;71.50;101730.53;6146760;23;20026;-72
2023/06/20 01:48:48;;;;;;;6.82;5.97;;;;;;;17.54;71.41;101734.97;6146063;23;20024;-73
2023/06/20 01:51:16;;;;;;;6.68;6.00;;;;;;;17.51;71.17;101737.72;6146224;23;20028;-73
2023/06/20 01:53:44;;;;;;;6.65;6.07;;;;;;;17.51;71.34;101738.56;6146794;23;20021;-73
2023/06/20 01:56:13;;;;;;;6.32;5.75;;;;;;;17.51;71.36;101737.72;6148867;23;20021;-72
2023/06/20 01:58:41;;;;;;;6.35;5.82;;;;;;;17.46;71.21;101726.44;6147514;23;20025;-73
2023/06/20 02:01:10;;;;;;;6.43;5.82;;;;;;;17.48;70.98;101727.25;6148450;23;20298;-72
2023/06/20 02:03:37;;;;;;;6.35;5.75;;;;;;;17.47;71.26;101730.78;6148663;23;21013;-72
2023/06/20 02:06:05;;;;;;;6.43;5.90;;;;;;;17.45;71.35;101733.50;6147844;23;20026;-72
2023/06/20 02:08:34;;;;;;;5.95;5.38;;;;;;;17.40;71.34;101726.63;6148505;23;20054;-72
2023/06/20 02:11:02;;;;;;;6.38;5.80;;;;;;;17.43;71.44;101740.59;6148142;23;20128;-74
2023/06/20 02:13:31;;;;;;;6.80;6.15;;;;;;;17.42;71.47;101732.72;6149491;23;20088;-70
2023/06/20 02:16:00;;;;;;;6.82;5.95;;;;;;;17.40;71.32;101739.84;6148344;23;20026;-67
2023/06/20 02:18:31;;;;;;;6.13;5.53;;;;;;;17.39;71.29;101732.81;6148300;23;20037;-68
2023/06/20 02:21:05;;;;;;;5.88;5.38;;;;;;;17.38;71.35;101729.31;6146458;23;20466;-68
2023/06/20 02:23:34;;;;;;;5.68;5.07;;;;;;;17.37;71.35;101722.31;6142862;23;20029;-68
2023/06/20 02:26:07;;;;;;;6.28;5.68;;;;;;;17.37;71.26;101726.72;6147703;23;20396;-68
2023/06/20 02:28:39;;;;;;;7.20;6.35;;;;;;;17.36;71.53;101717.94;6149246;23;20052;-83
2023/06/20 02:31:09;;;;;;;6.85;5.65;;;;;;;17.35;71.66;101720.63;6150231;23;20021;-83
2023/06/20 02:33:37;;;;;;;6.10;5.32;;;;;;;17.35;71.52;101717.97;6150255;23;20025;-82
2023/06/20 02:36:06;;;;;;;6.65;6.00;;;;;;;17.34;71.48;101714.47;6148876;23;20041;-82
2023/06/20 02:38:33;;;;;;;7.47;6.88;;;;;;;17.34;71.70;101713.63;6150392;23;20026;-82
2023/06/20 02:41:00;;;;;;;7.30;6.60;;;;;;;17.34;71.83;101716.25;6152563;23;20017;-82
2023/06/20 02:43:28;;;;;;;6.10;5.60;;;;;;;17.33;71.63;101718.00;6154079;23;20025;-84
2023/06/20 02:46:05;;;;;;;7.95;6.63;;;;;;;17.31;71.84;101712.78;6153545;23;20022;-82
2023/06/20 02:48:40;;;;;;;6.82;6.20;;;;;;;17.31;71.86;101715.44;6153427;23;20021;-82
2023/06/20 02:51:11;;;;;;;8.65;6.18;;;;;;;17.30;71.91;101708.44;6154093;23;20024;-81
2023/06/20 02:53:46;;;;;;;6.90;5.72;;;;;;;17.30;71.82;101703.16;6152394;23;20041;-82
2023/06/20 02:56:15;;;;;;;6.95;5.53;;;;;;;17.30;71.94;101710.19;6154123;23;20018;-81
2023/06/20 02:58:45;;;;;;;6.68;6.18;;;;;;;17.29;71.94;101709.34;6152052;23;20032;-81
2023/06/20 03:01:19;;;;;;;6.50;6.00;;;;;;;17.28;72.03;101699.69;6154641;23;20022;-82
2023/06/20 03:03:46;;;;;;;6.85;6.18;;;;;;;17.29;72.04;101701.41;6153608;23;20024;-82
2023/06/20 03:06:16;;;;;;;8.70;6.28;;;;;;;17.28;72.10;101704.97;6154392;23;20700;-82
2023/06/20 03:08:49;;;;;;;7.00;6.32;;;;;;;17.29;72.18;101698.78;6152175;23;20025;-82
2023/06/20 03:11:16;;;;;;;6.43;5.82;;;;;;;17.28;72.10;101710.25;6154362;23;20028;-82
2023/06/20 03:13:43;;;;;;;9.45;5.90;;;;;;;17.27;72.19;101708.50;6154788;23;20025;-82
2023/06/20 03:16:10;;;;;;;6.25;5.65;;;;;;;17.28;72.04;101707.63;6153650;23;20021;-81
2023/06/20 03:18:39;;;;;;;6.25;5.65;;;;;;;17.28;72.39;101704.97;6155132;23;20022;-82
2023/06/20 03:21:06;;;;;;;6.97;6.28;;;;;;;17.28;72.10;101704.13;6154706;23;20025;-82
2023/06/20 03:23:33;;;;;;;8.18;6.72;;;;;;;17.29;72.23;101705.84;6153636;23;20018;-82
2023/06/20 03:26:00;;;;;;;9.30;6.50;;;;;;;17.28;72.37;101709.41;6155791;23;20022;-82
2023/06/20 03:28:27;;;;;;;6.85;5.63;;;;;;;17.28;72.43;101707.63;6155839;23;20025;-82
2023/06/20 03:30:54;;;;;;;9.18;5.93;;;;;;;17.28;72.37;101712.03;6155158;23;20096;-83
2023/06/20 03:33:21;;;;;;;6.65;5.68;;;;;;;17.28;72.47;101712.91;6155626;23;20025;-82
2023/06/20 03:35:50;;;;;;;6.35;5.85;;;;;;;17.25;72.47;101715.63;6154769;23;20481;-83
2023/06/20 03:38:17;;;;;;;5.88;5.35;;;;;;;17.16;72.63;101702.72;6155362;23;20025;-82
2023/06/20 03:40:43;;;;;;;5.93;5.43;;;;;;;17.28;72.67;101719.97;6154491;23;20028;-82
2023/06/20 03:43:10;;;;;;;7.63;5.95;;;;;;;17.26;72.77;101722.63;6156558;23;20022;-83
2023/06/20 03:45:37;;;;;;;7.13;6.22;;;;;;;17.29;72.68;101730.47;6154660;23;20032;-82
2023/06/20 03:48:04;;;;;;;8.32;5.85;;;;;;;17.30;72.74;101732.22;6154901;23;20017;-82
2023/06/20 03:50:31;;;;;;;7.05;6.03;;;;;;;17.30;72.79;101739.22;6154594;23;20018;-82
2023/06/20 03:52:59;;;;;;;4.95;4.55;;;;;;;17.30;72.71;101739.22;6153951;23;20037;-82
2023/06/20 03:55:26;;;;;;;6.38;5.88;;;;;;;17.32;72.91;101747.97;6155729;23;20025;-81
2023/06/20 03:57:53;;;;;;;8.10;5.68;;;;;;;17.30;72.86;101748.06;6154075;23;20021;-81
2023/06/20 04:00:20;;;;;;;6.93;5.38;;;;;;;17.34;72.91;101745.31;6154957;23;20029;-81
2023/06/20 04:02:47;;;;;;;5.53;5.05;;;;;;;17.34;72.92;101748.81;6152439;23;20022;-81
2023/06/20 04:05:13;;;;;;;6.53;5.90;;;;;;;17.34;73.13;101750.59;6141108;23;20021;-81
2023/06/20 04:07:43;;;;;;;7.90;6.55;;;;;;;17.36;73.27;101748.75;6144053;23;20454;-81
2023/06/20 04:10:12;;;;;;;8.98;6.68;;;;;;;17.36;72.97;101749.63;6152375;23;20061;-81
2023/06/20 04:12:39;;;;;;;7.25;6.57;;;;;;;17.35;73.36;101752.31;6152032;23;20034;-81
2023/06/20 04:15:07;;;;;;;7.28;6.13;;;;;;;17.39;73.39;101754.81;6154734;23;20346;-81
2023/06/20 04:17:34;;;;;;;6.47;5.93;;;;;;;17.41;73.31;101763.53;6151409;23;20409;-81
2023/06/20 04:20:04;;;;;;;8.10;6.38;;;;;;;17.43;73.51;101760.88;6154461;23;20021;-83
2023/06/20 04:22:30;;;;;;;6.75;6.15;;;;;;;17.44;73.54;101762.59;6154879;23;20022;-81
2023/06/20 04:24:57;;;;;;;7.38;6.78;;;;;;;17.45;73.68;101769.63;6155306;23;20346;-82
2023/06/20 04:27:25;;;;;;;6.82;6.10;;;;;;;17.48;73.72;101756.31;6154759;23;20018;-81
2023/06/20 04:29:52;;;;;;;6.57;5.22;;;;;;;17.49;73.75;101765.94;6155092;23;20025;-81
2023/06/20 04:32:19;;;;;;;6.32;5.72;;;;;;;17.49;73.53;101760.66;6154189;23;20461;-81
2023/06/20 04:34:46;;;;;;;5.60;5.20;;;;;;;17.51;73.75;101761.50;6150632;23;20029;-78
2023/06/20 04:37:13;;;;;;;5.82;5.22;;;;;;;17.53;73.98;101764.94;6151510;23;20032;-76
2023/06/20 04:39:39;;;;;;;8.05;6.22;;;;;;;17.55;73.80;101771.03;6151130;23;20411;-77
2023/06/20 04:42:07;;;;;;;5.70;5.28;;;;;;;17.57;74.01;101763.06;6153795;23;20021;-78
2023/06/20 04:44:35;;;;;;;6.28;5.78;;;;;;;17.59;73.83;101769.16;6153892;23;20022;-78
2023/06/20 04:47:02;;;;;;;6.90;5.95;;;;;;;17.60;74.07;101763.84;6152739;23;20025;-79
2023/06/20 04:49:29;;;;;;;7.53;6.38;;;;;;;17.62;74.13;101762.00;6152799;23;20413;-77
2023/06/20 04:51:57;;;;;;;7.38;6.68;;;;;;;17.63;74.21;101753.16;6152633;23;20028;-77
2023/06/20 04:54:24;;;;;;;6.13;5.63;;;;;;;17.68;74.12;101750.38;6153606;23;20017;-77
2023/06/20 04:56:51;;;;;;;6.78;6.13;;;;;;;17.70;74.23;101753.81;6151035;23;20029;-78
2023/06/20 04:59:18;;;;;;;8.27;7.28;;;;;;;17.73;74.31;101753.72;6150846;23;20026;-76
2023/06/20 05:01:50;;;;;;;7.57;6.85;;;;;;;17.76;74.16;101737.78;6150995;23;20304;-78
2023/06/20 05:04:17;;;;;;;7.35;5.85;;;;;;;17.80;74.27;101749.16;6152719;23;20026;-79
2023/06/20 05:06:44;;;;;;;7.18;6.57;;;;;;;17.81;74.36;101751.72;6152138;23;20033;-79
2023/06/20 05:09:11;;;;;;;10.02;6.30;;;;;;;17.86;74.18;101748.94;6154640;23;20079;-79
2023/06/20 05:11:37;;;;;;;7.68;6.63;;;;;;;17.88;73.98;101742.69;6154240;23;20022;-79
2023/06/20 05:14:04;;;;;;;8.15;7.43;;;;;;;17.91;74.20;101758.44;6153921;23;20018;-79
2023/06/20 05:16:31;;;;;;;7.70;6.72;;;;;;;17.94;74.29;101744.25;6153596;23;20028;-78
2023/06/20 05:18:59;;;;;;;9.48;6.72;;;;;;;17.97;74.39;101742.38;6153847;23;20033;-80
2023/06/20 05:21:26;;;;;;;6.63;5.85;;;;;;;18.02;74.65;101744.00;6152128;23;20024;-79
2023/06/20 05:23:53;;;;;;;8.25;6.57;;;;;;;18.05;74.70;101742.13;6153240;23;20025;-80
2023/06/20 05:26:19;;;;;;;7.10;6.50;;;;;;;18.11;74.63;101743.69;6151396;23;20033;-77
2023/06/20 05:28:46;;;;;;;7.20;6.50;;;;;;;18.15;74.70;101740.88;6149832;23;20398;-76
2023/06/20 05:31:13;;;;;;;7.10;6.50;;;;;;;18.23;74.60;101750.34;6151724;23;20018;-77
2023/06/20 05:33:40;;;;;;;6.93;6.07;;;;;;;18.27;74.05;101747.53;6151751;23;20025;-77
2023/06/20 05:36:08;;;;;;;9.27;5.78;;;;;;;18.33;74.02;101749.97;6150800;23;20407;-77
2023/06/20 05:38:36;;;;;;;8.27;6.25;;;;;;;18.42;73.99;101748.78;6151520;23;20025;-77
2023/06/20 05:41:03;;;;;;;6.30;5.70;;;;;;;18.49;73.60;101744.09;6151009;23;20044;-77
2023/06/20 05:43:30;;;;;;;8.35;6.20;;;;;;;18.58;73.87;101738.47;6152232;23;20031;-77
2023/06/20 05:45:58;;;;;;;6.88;6.28;;;;;;;18.64;73.18;101739.13;6150948;23;20025;-77
2023/06/20 05:48:25;;;;;;;7.28;6.50;;;;;;;18.72;73.06;101740.63;6151320;23;20076;-77
2023/06/20 05:50:55;;;;;;;6.70;6.10;;;;;;;18.78;72.76;101735.13;6150985;23;20026;-77
2023/06/20 05:53:23;;;;;;;6.70;6.07;;;;;;;18.88;72.93;101731.22;6150219;23;20021;-77
2023/06/20 05:55:51;;;;;;;5.82;5.40;;;;;;;18.96;72.39;101729.16;6151184;23;20028;-77
2023/06/20 05:58:19;;;;;;;6.57;5.95;;;;;;;19.05;72.28;101726.13;6151369;23;20025;-77
2023/06/20 06:00:46;;;;;;;5.82;5.32;;;;;;;19.12;71.81;101724.09;6153480;23;20017;-79
2023/06/20 06:03:13;;;;;;;6.88;5.70;;;;;;;19.18;70.66;101728.31;6152305;23;20018;-78
2023/06/20 06:05:40;;;;;;;6.28;5.72;;;;;;;19.25;70.83;101730.66;6149124;23;20022;-78
2023/06/20 06:08:07;;;;;;;6.80;6.20;;;;;;;19.30;70.74;101734.00;6150616;23;20470;-78
2023/06/20 06:10:36;;;;;;;6.68;6.03;;;;;;;19.33;70.93;101733.00;6153141;23;20017;-78
2023/06/20 06:13:02;;;;;;;6.10;5.63;;;;;;;19.39;70.11;101734.56;6149916;23;20088;-76
2023/06/20 06:15:29;;;;;;;6.15;5.63;;;;;;;19.43;70.29;101734.34;6149200;23;20041;-77
2023/06/20 06:17:56;;;;;;;10.57;6.72;;;;;;;19.50;69.84;101730.53;6150604;23;20024;-77
2023/06/20 06:20:24;;;;;;;5.78;5.25;;;;;;;19.57;69.41;101730.28;6151937;23;20028;-78
2023/06/20 06:22:51;;;;;;;6.07;5.35;;;;;;;19.64;69.00;101729.13;6152536;23;20017;-79
2023/06/20 06:25:18;;;;;;;6.13;5.55;;;;;;;19.71;69.11;101733.28;6152871;23;20513;-88
2023/06/20 06:27:46;;;;;;;5.00;4.15;;;;;;;19.73;68.14;101726.13;6153224;23;20524;-86
2023/06/20 06:30:15;;;;;;;5.72;5.10;;;;;;;19.83;68.26;101735.41;6154724;23;20397;-85
2023/06/20 06:32:43;;;;;;;4.70;4.38;;;;;;;19.89;67.86;101737.78;6154001;23;20024;-87
2023/06/20 06:35:13;;;;;;;4.88;4.50;;;;;;;19.96;67.74;101743.72;6155219;23;20025;-87
2023/06/20 06:37:41;;;;;;;5.90;4.80;;;;;;;20.02;67.35;101747.91;6153787;23;20026;-87
2023/06/20 06:40:10;;;;;;;4.00;3.65;;;;;;;20.09;66.70;101746.69;6154008;23;20072;-87
2023/06/20 06:42:37;;;;;;;4.82;4.18;;;;;;;20.13;66.18;101745.66;6154358;23;20025;-87
2023/06/20 06:45:06;;;;;;;5.85;4.82;;;;;;;20.17;66.13;101742.78;6154675;23;20611;-86
2023/06/20 06:47:34;;;;;;;4.75;4.45;;;;;;;20.22;66.43;101755.84;6155063;23;20024;-87
2023/06/20 06:50:01;;;;;;;4.95;4.47;;;;;;;20.27;66.69;101750.38;6157094;23;20025;-86
2023/06/20 06:52:29;;;;;;;6.80;3.90;;;;;;;20.30;66.42;101751.09;6156205;23;20017;-87
2023/06/20 06:54:56;;;;;;;10.35;4.95;;;;;;;20.34;67.24;101751.81;6157087;23;20453;-86
2023/06/20 06:57:23;;;;;;;9.93;4.93;;;;;;;20.39;66.31;101748.03;6155814;23;20358;-88
2023/06/20 06:59:50;;;;;;;5.28;4.78;;;;;;;20.45;66.40;101753.06;6156889;23;20542;-88
2023/06/20 07:02:19;;;;;;;5.85;5.00;;;;;;;20.54;66.74;101757.13;6155305;23;20057;-84
2023/06/20 07:04:46;;;;;;;7.07;5.57;;;;;;;20.59;66.15;101754.28;6156380;23;20021;-87
2023/06/20 07:07:12;;;;;;;5.32;4.80;;;;;;;20.66;65.44;101747.75;6151804;23;20320;-87
2023/06/20 07:09:39;;;;;;;5.00;3.97;;;;;;;20.75;64.79;101743.81;6154447;23;20470;-87
2023/06/20 07:12:07;;;;;;;4.45;4.05;;;;;;;20.83;64.63;101746.97;6153678;23;20724;-86
2023/06/20 07:14:34;;;;;;;4.57;4.13;;;;;;;20.89;65.29;101742.25;6151513;23;20021;-85
2023/06/20 07:17:01;;;;;;;5.68;5.10;;;;;;;21.01;64.94;101742.63;6152645;23;20028;-85
2023/06/20 07:19:29;;;;;;;5.35;3.90;;;;;;;21.04;64.71;101738.03;6152288;23;20022;-84
2023/06/20 07:21:56;;;;;;;5.22;4.75;;;;;;;21.17;64.52;101740.09;6152841;23;20024;-84
2023/06/20 07:24:23;;;;;;;4.97;4.47;;;;;;;21.23;64.13;101743.34;6154118;23;20021;-86
2023/06/20 07:26:50;;;;;;;6.13;4.60;;;;;;;21.31;63.61;101735.81;6153498;23;20033;-85
2023/06/20 07:29:17;;;;;;;5.43;4.97;;;;;;;21.39;63.81;101734.66;6154790;23;20069;-85
2023/06/20 07:31:44;;;;;;;6.78;4.93;;;;;;;21.43;64.12;101736.19;6152790;23;20353;-83
2023/06/20 07:34:10;;;;;;;4.13;3.75;;;;;;;21.48;64.53;101737.69;6154710;23;20028;-82
2023/06/20 07:36:39;;;;;;;3.80;3.50;;;;;;;21.41;63.79;101712.38;6152508;23;20022;-84
2023/06/20 07:39:06;;;;;;;4.53;4.22;;;;;;;21.61;63.22;101737.13;6154097;23;20023;-84
2023/06/20 07:41:33;;;;;;;4.72;4.32;;;;;;;21.69;63.02;101738.47;6152662;23;20672;-85
2023/06/20 07:44:00;;;;;;;4.75;4.38;;;;;;;21.79;63.42;101738.84;6148271;23;20022;-85
2023/06/20 07:46:26;;;;;;;4.40;4.03;;;;;;;21.85;62.84;101729.69;6153054;23;20032;-80
2023/06/20 07:48:53;;;;;;;4.65;4.30;;;;;;;21.97;62.00;101727.28;6151975;23;20031;-85
2023/06/20 07:51:22;;;;;;;5.30;4.80;;;;;;;22.01;61.98;101714.69;6154623;23;20022;-84
2023/06/20 07:53:50;;;;;;;4.60;4.20;;;;;;;22.14;61.32;101729.09;6152223;23;20029;-83
2023/06/20 07:56:17;;;;;;;4.82;4.43;;;;;;;22.21;61.42;101730.50;6153291;23;20037;-85
2023/06/20 07:58:44;;;;;;;4.93;4.35;;;;;;;22.27;61.15;101734.66;6152850;23;20342;-85
2023/06/20 08:01:12;;;;;;;5.88;4.38;;;;;;;22.33;60.94;101728.16;6154034;23;20067;-85
2023/06/20 08:03:39;;;;;;;4.32;4.00;;;;;;;22.39;59.97;101726.00;6154304;23;20073;-87
2023/06/20 08:06:06;;;;;;;4.68;4.28;;;;;;;22.46;59.39;101729.22;6154548;23;20075;-85
2023/06/20 08:08:33;;;;;;;4.30;3.90;;;;;;;22.51;58.88;101721.81;6152953;23;20462;-86
2023/06/20 08:11:02;;;;;;;4.78;4.38;;;;;;;22.55;57.88;101723.41;6153672;23;20024;-85
2023/06/20 08:13:29;;;;;;;4.97;4.47;;;;;;;22.60;57.99;101724.03;6152452;23;20402;-86
2023/06/20 08:15:55;;;;;;;5.30;4.90;;;;;;;22.64;57.40;101717.56;6154780;23;20024;-85
2023/06/20 08:18:22;;;;;;;5.65;4.70;;;;;;;22.68;58.26;101728.91;6152388;23;20048;-85
2023/06/20 08:20:49;;;;;;;4.72;4.32;;;;;;;22.73;58.04;101723.34;6153920;23;20116;-84
2023/06/20 08:23:23;;;;;;;5.18;4.70;;;;;;;22.78;57.67;101719.50;6153138;23;20029;-86
2023/06/20 08:25:50;;;;;;;6.65;4.47;;;;;;;22.82;58.63;101725.50;6152453;23;20025;-84
2023/06/20 08:28:18;;;;;;;4.25;3.95;;;;;;;22.85;58.84;101720.00;6153166;23;20590;-84
2023/06/20 08:30:45;;;;;;;5.45;4.50;;;;;;;22.85;59.29;101725.31;6152679;23;20025;-84
2023/06/20 08:33:12;;;;;;;5.57;4.43;;;;;;;22.91;58.77;101730.34;6154795;23;20032;-83
2023/06/20 08:35:39;;;;;;;4.00;3.70;;;;;;;22.93;58.67;101733.75;6151961;23;20024;-83
2023/06/20 08:38:06;;;;;;;4.78;3.90;;;;;;;22.98;58.72;101746.88;6153809;23;20021;-85
2023/06/20 08:40:33;;;;;;;6.32;4.05;;;;;;;23.01;58.73;101742.22;6153016;23;20021;-84
2023/06/20 08:43:01;;;;;;;4.82;3.90;;;;;;;23.03;58.19;101740.34;6153500;23;20025;-82
2023/06/20 08:45:29;;;;;;;4.00;3.47;;;;;;;23.04;58.38;101738.53;6151610;23;20404;-84
2023/06/20 08:47:59;;;;;;;6.93;3.20;;;;;;;23.06;58.06;101745.50;6152330;23;20021;-83
2023/06/20 08:50:25;;;;;;;4.38;3.20;;;;;;;23.10;57.77;101741.72;6152053;23;20025;-82
2023/06/20 08:52:54;;;;;;;5.85;3.22;;;;;;;23.12;57.54;101745.16;6152773;23;20043;-84
2023/06/20 08:55:22;;;;;;;4.15;3.72;;;;;;;23.14;56.24;101734.44;6152798;23;20045;-82
2023/06/20 08:57:51;;;;;;;4.90;3.10;;;;;;;23.19;55.75;101743.00;6155713;23;20028;-85
2023/06/20 09:00:20;;;;;;;2.92;2.70;;;;;;;23.22;55.95;101740.16;6153963;23;20022;-83
2023/06/20 09:02:48;;;;;;;9.15;3.53;;;;;;;23.29;56.31;101736.22;6155803;23;20028;-85
2023/06/20 09:05:16;;;;;;;4.75;4.25;;;;;;;23.36;56.46;101742.06;6154891;23;20024;-85
2023/06/20 09:07:43;;;;;;;3.88;3.58;;;;;;;23.44;56.02;101741.63;6155718;23;20021;-84
2023/06/20 09:10:13;;;;;;;5.38;3.70;;;;;;;23.49;55.85;101735.06;6152164;23;20025;-84
2023/06/20 09:12:47;;;;;;;8.07;4.38;;;;;;;23.56;54.93;101736.47;6153637;23;20332;-84
2023/06/20 09:15:15;;;;;;;5.43;4.30;;;;;;;23.60;54.04;101738.94;6154113;23;20040;-84
2023/06/20 09:17:42;;;;;;;3.40;2.72;;;;;;;23.66;54.02;101743.91;6155403;23;20030;-85
2023/06/20 09:20:12;;;;;;;4.90;4.50;;;;;;;23.69;53.86;101733.06;6152304;23;20048;-83
2023/06/20 09:22:40;;;;;;;5.60;5.05;;;;;;;23.71;54.27;101732.06;6154341;23;20021;-82
2023/06/20 09:25:09;;;;;;;5.78;5.28;;;;;;;23.74;54.18;101741.69;6152550;23;20028;-85
2023/06/20 09:27:36;;;;;;;6.10;5.57;;;;;;;23.77;54.65;101741.53;6153197;23;20032;-84
2023/06/20 09:30:04;;;;;;;5.50;5.07;;;;;;;23.80;53.98;101736.00;6152019;23;20025;-81
2023/06/20 09:32:34;;;;;;;5.60;4.68;;;;;;;23.83;54.05;101735.81;6152531;23;20025;-79
2023/06/20 09:35:04;;;;;;;9.27;5.38;;;;;;;23.83;53.30;101727.81;6152811;23;20753;-80
2023/06/20 09:37:38;;;;;;;5.15;4.75;;;;;;;23.87;53.44;101734.66;6153920;23;20021;-80
2023/06/20 09:40:09;;;;;;;7.20;6.47;;;;;;;23.88;53.11;101741.75;6154808;23;20026;-80
2023/06/20 09:42:37;;;;;;;9.05;6.80;;;;;;;23.84;53.00;101726.84;6153592;23;20049;-80
2023/06/20 09:45:04;;;;;;;8.85;6.10;;;;;;;23.91;52.90;101738.03;6153000;23;20021;-80
2023/06/20 09:47:31;;;;;;;6.25;5.75;;;;;;;23.92;53.00;101737.94;6152328;23;20036;-79
2023/06/20 09:49:59;;;;;;;4.88;4.57;;;;;;;23.91;53.05;101735.38;6152255;23;20029;-77
2023/06/20 09:52:33;;;;;;;6.45;5.85;;;;;;;23.90;53.26;101731.81;6153705;23;20351;-80
2023/06/20 09:55:01;;;;;;;4.03;3.65;;;;;;;23.95;52.35;101729.75;6152903;23;20477;-79
2023/06/20 09:57:37;;;;;;;6.82;4.45;;;;;;;23.94;52.13;101728.03;6153511;23;20037;-79
2023/06/20 10:00:10;;;;;;;4.30;4.00;;;;;;;23.98;51.84;101729.56;6153907;23;20028;-80
2023/06/20 10:02:38;;;;;;;4.53;4.20;;;;;;;24.01;52.37;101734.72;6153507;23;20028;-79
2023/06/20 10:05:06;;;;;;;4.75;4.38;;;;;;;24.06;51.84;101730.91;6151847;23;20056;-79
2023/06/20 10:07:36;;;;;;;4.68;3.70;;;;;;;24.10;52.36;101732.44;6151693;23;20044;-81
2023/06/20 10:10:05;;;;;;;5.97;4.20;;;;;;;24.13;52.07;101733.09;6154086;23;20021;-79
2023/06/20 10:12:32;;;;;;;10.98;4.80;;;;;;;24.18;52.41;101732.84;6151700;23;20025;-81
2023/06/20 10:15:01;;;;;;;6.82;4.45;;;;;;;24.24;52.67;101727.13;6151994;23;20028;-80
2023/06/20 10:17:34;;;;;;;7.60;4.50;;;;;;;24.28;52.01;101726.00;6153580;23;20435;-80
2023/06/20 10:20:01;;;;;;;5.65;4.30;;;;;;;24.30;53.10;101725.88;6153385;23;20025;-80
2023/06/20 10:22:36;;;;;;;9.45;5.20;;;;;;;24.37;52.49;101722.75;6153192;23;20017;-79
2023/06/20 10:25:12;;;;;;;5.10;4.65;;;;;;;24.39;51.32;101723.53;6156321;23;20032;-80
2023/06/20 10:27:41;;;;;;;5.20;4.78;;;;;;;24.44;51.15;101720.59;6155215;23;20096;-79
2023/06/20 10:30:10;;;;;;;5.15;4.75;;;;;;;24.46;51.30;101724.03;6154902;23;20097;-80
2023/06/20 10:33:04;;;;;;;4.93;4.53;;;;;;;24.50;50.42;101714.88;6152733;23;20022;-80
2023/06/20 10:35:31;;;;;;;4.07;3.78;;;;;;;24.53;50.43;101719.16;6154268;23;20355;-79
2023/06/20 10:38:08;;;;;;;4.95;4.50;;;;;;;24.56;50.33;101713.63;6154645;23;20025;-79
2023/06/20 10:40:37;;;;;;;4.40;4.10;;;;;;;24.57;50.92;101721.56;6150152;23;20060;-77
2023/06/20 10:43:08;;;;;;;4.97;4.47;;;;;;;24.57;50.18;101718.03;6152019;23;20040;-81
2023/06/20 10:45:35;;;;;;;4.03;3.72;;;;;;;24.60;50.58;101717.84;6153268;23;20076;-78
2023/06/20 10:48:03;;;;;;;4.90;4.28;;;;;;;24.60;49.85;101721.38;6153222;23;20029;-78
2023/06/20 10:50:30;;;;;;;6.60;3.80;;;;;;;24.59;50.00;101716.09;6154096;23;20048;-78
2023/06/20 10:53:01;;;;;;;4.25;3.95;;;;;;;24.60;50.31;101715.16;6153606;23;20053;-79
2023/06/20 10:55:29;;;;;;;5.78;5.13;;;;;;;24.61;51.13;101716.88;6154745;23;20045;-79
2023/06/20 10:57:57;;;;;;;4.60;4.20;;;;;;;24.63;51.28;101720.31;6153332;23;20092;-80
2023/06/20 11:00:24;;;;;;;4.00;3.70;;;;;;;24.61;51.22;101711.53;6152952;23;20052;-80
2023/06/20 11:02:52;;;;;;;4.55;3.65;;;;;;;24.67;51.39;101719.16;6152835;23;20021;-78
2023/06/20 11:05:19;;;;;;;4.40;4.00;;;;;;;24.70;52.03;101713.63;6151790;23;20021;-80
2023/06/20 11:07:57;;;;;;;3.50;3.20;;;;;;;24.73;52.27;101713.41;6153235;23;20022;-79
2023/06/20 11:10:28;;;;;;;4.15;3.88;;;;;;;24.77;51.73;101714.97;6150906;23;20021;-79
2023/06/20 11:12:57;;;;;;;3.75;3.25;;;;;;;24.80;52.44;101717.44;6154118;23;20027;-79
2023/06/20 11:15:26;;;;;;;4.32;4.03;;;;;;;24.82;52.00;101717.34;6150644;23;20678;-79
2023/06/20 11:17:54;;;;;;;4.13;3.67;;;;;;;24.83;51.64;101716.38;6153527;23;20017;-78
2023/06/20 11:20:25;;;;;;;3.90;3.53;;;;;;;24.84;51.90;101710.94;6151967;23;20343;-79
2023/06/20 11:22:54;;;;;;;4.00;3.67;;;;;;;24.85;51.86;101709.13;6153644;23;20105;-78
2023/06/20 11:25:29;;;;;;;6.88;4.90;;;;;;;24.88;51.76;101708.94;6149398;23;20033;-79
2023/06/20 11:28:05;;;;;;;4.03;3.50;;;;;;;24.89;51.82;101707.97;6151651;23;20089;-81
2023/06/20 11:30:33;;;;;;;4.25;3.95;;;;;;;24.89;51.79;101706.16;6150446;23;20032;-78